createdAt,value
2022-12-04T00:01:15.633Z,95227.31
2022-12-04T00:06:55.509Z,95227.19
2022-12-04T00:09:41.203Z,95224.38
2022-12-04T00:15:25.318Z,95221.59
2022-12-04T00:20:52.392Z,95220.94
2022-12-04T00:26:33.497Z,95212.48
2022-12-04T00:29:22.155Z,95209.26
2022-12-04T00:34:59.715Z,95209.47
2022-12-04T00:40:35.625Z,95216.14
2022-12-04T00:48:48.215Z,95222.70
2022-12-04T00:54:18.211Z,95221.11
2022-12-04T00:59:47.969Z,95210.23
2022-12-04T01:02:56.006Z,95223.30
2022-12-04T01:08:35.104Z,95225.05
2022-12-04T01:14:02.708Z,95227.09
2022-12-04T01:19:40.098Z,95217.00
2022-12-04T01:22:28.548Z,95223.01
2022-12-04T01:28:04.523Z,95204.50
2022-12-04T01:31:04.261Z,95219.93
2022-12-04T01:36:57.300Z,95207.17
2022-12-04T01:42:30.287Z,95202.72
2022-12-04T01:45:39.503Z,95203.32
2022-12-04T01:51:18.538Z,95212.37
2022-12-04T01:56:54.360Z,95213.18
2022-12-04T02:02:26.670Z,95207.20
2022-12-04T02:05:17.509Z,95203.16
2022-12-04T02:11:05.979Z,95199.53
2022-12-04T02:16:45.704Z,95207.95
2022-12-04T02:23:14.200Z,95195.22
2022-12-04T02:31:37.132Z,95191.70
2022-12-04T02:37:10.344Z,95205.50
2022-12-04T02:45:39.579Z,95199.13
2022-12-04T02:54:02.215Z,95208.66
2022-12-04T02:59:39.640Z,95205.55
2022-12-04T03:08:29.536Z,95195.38
2022-12-04T03:14:07.872Z,95209.29
2022-12-04T03:19:58.272Z,95199.46
2022-12-04T03:28:20.019Z,95190.70
2022-12-04T03:33:59.742Z,95179.58
2022-12-04T03:36:52.229Z,95186.41
2022-12-04T03:45:23.039Z,95187.81
2022-12-04T03:51:17.917Z,95184.55
2022-12-04T03:57:01.036Z,95190.70
2022-12-04T04:02:42.215Z,95185.89
2022-12-04T04:08:27.159Z,95186.41
2022-12-04T04:14:16.242Z,95191.45
2022-12-04T04:20:19.000Z,95178.10
2022-12-04T04:25:55.763Z,95165.94
2022-12-04T04:28:47.308Z,95161.30
2022-12-04T04:34:27.824Z,95162.82
2022-12-04T04:40:00.081Z,95178.44
2022-12-04T04:42:50.407Z,95177.62
2022-12-04T04:51:12.482Z,95185.59
2022-12-04T04:54:04.327Z,95189.33
2022-12-04T04:59:41.464Z,95172.98
2022-12-04T05:05:11.529Z,95189.11
2022-12-04T05:10:48.441Z,95175.28
2022-12-04T05:13:39.255Z,95174.76
2022-12-04T05:19:36.307Z,95180.14
2022-12-04T05:25:07.334Z,95187.62
2022-12-04T05:30:43.243Z,95187.93
2022-12-04T05:33:31.754Z,95187.96
2022-12-04T05:39:01.266Z,95184.81
2022-12-04T05:41:49.594Z,95186.96
2022-12-04T05:44:37.849Z,95185.89
2022-12-04T05:50:09.889Z,95195.67
2022-12-04T05:52:58.332Z,95202.20
2022-12-04T05:55:48.417Z,95198.94
2022-12-04T06:01:26.797Z,95194.83
2022-12-04T06:04:16.068Z,95189.52
2022-12-04T06:07:05.623Z,95189.08
2022-12-04T06:12:40.454Z,95191.63
2022-12-04T06:18:09.441Z,95190.70
2022-12-04T06:23:39.913Z,95198.67
2022-12-04T06:26:28.958Z,95194.72
2022-12-04T06:32:01.901Z,95208.91
2022-12-04T06:37:54.286Z,95206.28
2022-12-04T06:43:31.553Z,95207.87
2022-12-04T06:49:03.785Z,95213.05
2022-12-04T06:54:40.437Z,95211.89
2022-12-04T07:00:12.276Z,95221.63
2022-12-04T07:05:47.269Z,95217.83
2022-12-04T07:11:22.170Z,95235.62
2022-12-04T07:16:59.194Z,95226.09
2022-12-04T07:22:34.663Z,95224.67
2022-12-04T07:28:04.107Z,95226.94
2022-12-04T07:30:52.332Z,95225.67
2022-12-04T07:36:21.469Z,95211.41
2022-12-04T07:44:28.203Z,95236.45
2022-12-04T07:50:09.401Z,95245.84
2022-12-04T07:55:44.612Z,95239.94
2022-12-04T07:58:32.869Z,95235.77
2022-12-04T08:01:23.338Z,95235.89
2022-12-04T08:04:19.909Z,95239.09
2022-12-04T08:09:56.707Z,95235.80
2022-12-04T08:15:32.264Z,95228.20
2022-12-04T08:21:07.749Z,95229.14
2022-12-04T08:26:49.832Z,95238.25
2022-12-04T08:32:21.060Z,95243.04
2022-12-04T08:35:10.154Z,95245.70
2022-12-04T08:37:58.538Z,95244.58
2022-12-04T08:40:47.875Z,95248.65
2022-12-04T08:43:38.682Z,95263.67
2022-12-04T08:49:16.579Z,95260.67
2022-12-04T08:54:52.863Z,95241.44
2022-12-04T08:57:41.114Z,95238.82
2022-12-04T09:00:31.464Z,95246.06
2022-12-04T09:03:26.104Z,95250.55
2022-12-04T09:11:57.140Z,95261.30
2022-12-04T09:17:33.453Z,95264.69
2022-12-04T09:23:06.170Z,95272.82
2022-12-04T09:28:41.259Z,95282.37
2022-12-04T09:34:20.100Z,95272.80
2022-12-04T09:37:10.769Z,95273.23
2022-12-04T09:42:44.834Z,95265.20
2022-12-04T09:48:23.880Z,95270.06
2022-12-04T09:54:20.835Z,95266.95
2022-12-04T10:00:19.396Z,95276.78
2022-12-04T10:03:10.611Z,95277.10
2022-12-04T10:06:02.764Z,95271.60
2022-12-04T10:08:56.474Z,95273.66
2022-12-04T10:17:56.533Z,95266.12
2022-12-04T10:24:11.424Z,95262.86
2022-12-04T10:27:02.470Z,95262.73
2022-12-04T10:32:34.005Z,95240.64
2022-12-04T10:38:06.834Z,95225.98
2022-12-04T10:49:15.071Z,95214.50
2022-12-04T10:54:52.546Z,95201.69
2022-12-04T11:00:33.906Z,95182.84
2022-12-04T11:03:28.554Z,95172.45
2022-12-04T11:06:17.740Z,95185.84
2022-12-04T11:14:46.758Z,95223.80
2022-12-04T11:20:34.710Z,95215.95
2022-12-04T11:23:26.505Z,95213.79
2022-12-04T11:26:15.665Z,95210.00
2022-12-04T11:31:54.779Z,95202.64
2022-12-04T11:37:23.948Z,95208.18
2022-12-04T11:40:19.982Z,95210.00
2022-12-04T11:43:14.201Z,95212.58
2022-12-04T11:48:47.854Z,95202.18
2022-12-04T11:54:37.107Z,95201.32
2022-12-04T12:03:13.183Z,95194.66
2022-12-04T12:09:08.968Z,95188.80
2022-12-04T12:14:46.263Z,95186.52
2022-12-04T12:20:21.630Z,95181.97
2022-12-04T12:23:26.633Z,95179.67
2022-12-04T12:29:11.946Z,95164.48
2022-12-04T12:35:00.466Z,95160.19
2022-12-04T12:43:25.743Z,95165.50
2022-12-04T12:49:12.882Z,95164.39
2022-12-04T12:54:52.301Z,95153.86
2022-12-04T13:00:32.964Z,95157.08
2022-12-04T13:06:14.798Z,95171.78
2022-12-04T13:14:30.987Z,95168.87
2022-12-04T13:17:24.814Z,95168.51
2022-12-04T13:20:18.070Z,95167.14
2022-12-04T13:28:22.368Z,95166.05
2022-12-04T13:37:04.415Z,95168.57
2022-12-04T13:40:37.844Z,95161.45
2022-12-04T13:46:30.119Z,95161.18
2022-12-04T13:49:27.074Z,95170.00
2022-12-04T13:52:25.114Z,95162.02
2022-12-04T13:55:32.803Z,95158.28
2022-12-04T13:58:30.369Z,95155.55
2022-12-04T14:04:26.554Z,95156.04
2022-12-04T14:10:09.766Z,95154.84
2022-12-04T14:16:14.404Z,95140.83
2022-12-04T14:21:49.435Z,95141.44
2022-12-04T14:27:37.462Z,95150.58
2022-12-04T14:33:32.255Z,95156.73
2022-12-04T14:45:40.840Z,95172.83
2022-12-04T14:51:38.893Z,95176.83
2022-12-04T15:00:33.480Z,95187.12
2022-12-04T15:06:36.534Z,95183.91
2022-12-04T15:15:20.845Z,95170.16
2022-12-04T15:21:01.736Z,95162.85
2022-12-04T15:26:40.973Z,95163.55
2022-12-04T15:32:17.632Z,95155.09
2022-12-04T15:37:47.015Z,95160.33
2022-12-04T15:40:35.937Z,95168.68
2022-12-04T15:46:13.423Z,95168.45
2022-12-04T15:55:00.488Z,95168.57
2022-12-04T16:00:39.741Z,95169.70
2022-12-04T16:06:21.604Z,95179.23
2022-12-04T16:09:19.161Z,95174.06
2022-12-04T16:12:18.896Z,95174.56
2022-12-04T16:18:03.832Z,95177.04
2022-12-04T16:20:52.153Z,95184.17
2022-12-04T16:26:29.425Z,95195.37
2022-12-04T16:29:17.763Z,95194.36
2022-12-04T16:32:07.047Z,95189.05
2022-12-04T16:37:42.923Z,95193.16
2022-12-04T16:43:18.831Z,95188.72
2022-12-04T16:46:07.513Z,95184.15
2022-12-04T16:51:45.923Z,95173.55
2022-12-04T16:57:25.161Z,95178.67
2022-12-04T17:03:04.815Z,95211.70
2022-12-04T17:08:39.472Z,95227.01
2022-12-04T17:14:12.455Z,95227.41
2022-12-04T17:19:48.922Z,95243.34
2022-12-04T17:25:21.433Z,95239.77
2022-12-04T17:30:56.154Z,95255.79
2022-12-04T17:36:36.115Z,95254.97
2022-12-04T17:42:10.790Z,95258.53
2022-12-04T17:44:59.962Z,95261.15
2022-12-04T17:50:34.671Z,95266.24
2022-12-04T17:56:34.016Z,95266.83
2022-12-04T17:59:22.371Z,95280.36
2022-12-04T18:04:51.589Z,95296.61
2022-12-04T18:10:22.350Z,95293.35
2022-12-04T18:16:06.595Z,95301.79
2022-12-04T18:18:55.514Z,95303.81
2022-12-04T18:24:29.700Z,95305.30
2022-12-04T18:30:03.339Z,95316.05
2022-12-04T18:35:44.724Z,95311.68
2022-12-04T18:38:33.460Z,95309.51
2022-12-04T18:44:08.389Z,95330.36
2022-12-04T18:56:04.866Z,95330.18
2022-12-04T19:01:53.915Z,95325.59
2022-12-04T19:07:43.113Z,95336.50
2022-12-04T19:10:33.468Z,95341.92
2022-12-04T19:16:03.767Z,95350.11
2022-12-04T19:24:30.464Z,95360.59
2022-12-04T19:30:03.623Z,95365.23
2022-12-04T19:35:32.819Z,95364.77
2022-12-04T19:41:26.716Z,95336.98
2022-12-04T19:46:54.447Z,95342.67
2022-12-04T19:52:25.956Z,95350.69
2022-12-04T19:58:02.624Z,95351.73
2022-12-04T20:04:03.660Z,95334.36
2022-12-04T20:09:51.942Z,95337.98
2022-12-04T20:18:00.117Z,95343.80
2022-12-04T20:23:59.020Z,95360.83
2022-12-04T20:26:52.732Z,95357.06
2022-12-04T20:32:21.357Z,95348.95
2022-12-04T20:35:11.215Z,95349.27
2022-12-04T20:40:45.115Z,95357.61
2022-12-04T20:43:35.319Z,95355.37
2022-12-04T20:46:27.347Z,95357.09
2022-12-04T20:49:22.042Z,95358.66
2022-12-04T20:54:52.554Z,95370.55
2022-12-04T21:00:20.040Z,95361.27
2022-12-04T21:03:08.388Z,95357.19
2022-12-04T21:08:54.704Z,95383.80
2022-12-04T21:14:49.048Z,95393.08
2022-12-04T21:20:16.785Z,95400.83
2022-12-04T21:23:06.978Z,95398.31
2022-12-04T21:25:57.658Z,95389.98
2022-12-04T21:31:35.109Z,95397.69
2022-12-04T21:37:07.944Z,95407.31
2022-12-04T21:42:54.608Z,95420.87
2022-12-04T21:48:32.844Z,95424.89
2022-12-04T21:51:48.616Z,95431.78
2022-12-04T21:57:01.123Z,95445.81
2022-12-04T22:02:35.561Z,95438.29
2022-12-04T22:08:09.503Z,95448.75
2022-12-04T22:10:58.565Z,95452.52
2022-12-04T22:16:43.279Z,95480.22
2022-12-04T22:22:18.147Z,95500.28
2022-12-04T22:25:08.124Z,95495.84
2022-12-04T22:30:49.387Z,95508.75
2022-12-04T22:36:21.091Z,95507.84
2022-12-04T22:41:59.652Z,95517.40
2022-12-04T22:44:48.630Z,95532.19
2022-12-04T22:50:31.224Z,95534.75
2022-12-04T22:53:28.359Z,95542.42
2022-12-04T22:58:58.077Z,95566.91
2022-12-04T23:04:29.934Z,95571.48
2022-12-04T23:07:18.224Z,95577.27
2022-12-04T23:10:08.719Z,95575.31
2022-12-04T23:15:44.122Z,95570.92
2022-12-04T23:21:22.288Z,95578.09
2022-12-04T23:24:12.249Z,95581.07
2022-12-04T23:27:00.909Z,95578.87
2022-12-04T23:29:53.526Z,95577.78
2022-12-04T23:35:27.720Z,95566.00
2022-12-04T23:41:06.314Z,95581.28
2022-12-04T23:46:43.579Z,95602.28
2022-12-04T23:49:32.081Z,95605.75
2022-12-04T23:57:50.603Z,95609.59
